Time;durP1;ratioP1;P1;durP2;ratioP2;P2;SDS_P1;SDS_P2;PMS_P1;PMS_P2;Temp;Humidity;BMP_temperature;BMP_pressure;BME280_temperature;BME280_humidity;BME280_pressure;Samples;Min_cycle;Max_cycle;Signal;HPM_P1;HPM_P2
2020/12/15 00:03:27;;;;;;;63.30;31.00;;;;;;;2.62;100.00;100711.44;10718535;82;21099;-83
2020/12/15 00:18:32;;;;;;;58.98;27.02;;;;;;;2.67;100.00;100702.16;10353167;84;21493;-81
2020/12/15 00:33:36;;;;;;;61.70;29.65;;;;;;;2.68;100.00;100697.80;10372879;84;21087;-84
2020/12/15 00:48:42;;;;;;;66.17;31.35;;;;;;;2.55;100.00;100694.52;10481508;82;21030;-81
2020/12/15 01:03:46;;;;;;;60.45;27.00;;;;;;;2.32;100.00;100716.31;10482236;83;21084;-83
2020/12/15 01:18:51;;;;;;;56.42;27.02;;;;;;;2.23;100.00;100736.16;10708082;81;21127;-84
2020/12/15 01:34:02;;;;;;;57.03;27.17;;;;;;;2.13;100.00;100742.23;10718270;81;20989;-84
2020/12/15 01:49:08;;;;;;;54.85;26.33;;;;;;;1.79;100.00;100704.45;10723011;81;20981;-83
2020/12/15 02:04:13;;;;;;;63.95;26.75;;;;;;;1.68;100.00;100686.01;10683016;82;21683;-80
2020/12/15 02:19:19;;;;;;;50.40;23.87;;;;;;;1.68;100.00;100690.32;10718179;81;21073;-80
2020/12/15 02:34:23;;;;;;;51.60;22.87;;;;;;;1.71;100.00;100696.67;10669498;82;21462;-79
2020/12/15 02:49:28;;;;;;;53.17;24.67;;;;;;;1.70;100.00;100695.81;10662826;82;21793;-79
2020/12/15 03:04:33;;;;;;;53.30;26.68;;;;;;;1.52;100.00;100706.97;10704950;82;21134;-82
2020/12/15 03:19:39;;;;;;;56.73;26.30;;;;;;;1.21;100.00;100704.42;10729778;82;21073;-80
2020/12/15 03:34:43;;;;;;;63.23;26.45;;;;;;;1.02;100.00;100703.04;10713697;82;21442;-83
2020/12/15 03:49:47;;;;;;;69.42;32.20;;;;;;;0.87;100.00;100686.44;10719436;82;21037;-84
2020/12/15 04:04:52;;;;;;;62.40;27.65;;;;;;;0.82;100.00;100690.52;10368361;84;21039;-88
2020/12/15 04:19:57;;;;;;;71.33;30.27;;;;;;;0.82;100.00;100690.52;10243340;86;21103;-83
2020/12/15 04:35:01;;;;;;;75.72;32.63;;;;;;;0.79;100.00;100682.44;10447687;84;21096;-81
2020/12/15 04:50:10;;;;;;;101.00;43.33;;;;;;;0.73;100.00;100687.84;10448328;84;21461;-81
2020/12/15 05:05:13;;;;;;;;;;;;;;;0.78;100.00;100688.50;10796621;81;20997;-81
2020/12/15 05:20:28;;;;;;;398.90;134.37;;;;;;;0.53;100.00;100679.62;10750307;81;20143;-81
2020/12/15 05:35:35;;;;;;;420.38;148.90;;;;;;;0.53;100.00;100679.62;10724777;82;21008;-86
2020/12/15 05:50:39;;;;;;;102.15;48.08;;;;;;;0.47;100.00;100675.52;10703343;82;21007;-87
2020/12/15 06:05:45;;;;;;;92.67;38.92;;;;;;;0.48;100.00;100691.41;10385988;85;21134;-86
2020/12/15 06:20:49;;;;;;;264.27;102.53;;;;;;;0.58;100.00;100710.41;10652255;82;21072;-89
2020/12/15 06:35:53;;;;;;;125.45;54.13;;;;;;;0.63;100.00;100720.11;10725956;82;21446;-87
2020/12/15 06:50:58;;;;;;;123.22;51.48;;;;;;;0.54;100.00;100748.87;10482735;84;21456;-88
2020/12/15 07:06:10;;;;;;;112.55;45.25;;;;;;;0.59;100.00;100745.66;10690959;82;21020;-83
2020/12/15 07:21:14;;;;;;;108.63;41.18;;;;;;;0.62;100.00;100728.75;10738276;81;21049;-84
2020/12/15 07:36:20;;;;;;;104.03;38.53;;;;;;;0.66;100.00;100709.67;10729682;81;21139;-87
2020/12/15 07:51:25;;;;;;;108.92;47.23;;;;;;;0.64;100.00;100750.20;10758657;81;21085;-85
2020/12/15 08:06:31;;;;;;;136.90;51.18;;;;;;;0.60;100.00;100770.13;10778356;82;21054;-85
2020/12/15 08:21:45;;;;;;;135.00;66.00;;;;;;;0.58;100.00;100760.75;10728293;81;21025;-86
2020/12/15 08:36:53;;;;;;;100.58;41.77;;;;;;;0.64;100.00;100739.41;10738532;82;20981;-86
2020/12/15 08:51:57;;;;;;;287.88;85.80;;;;;;;0.77;100.00;100748.81;10746006;82;21097;-86
2020/12/15 09:07:13;;;;;;;532.60;248.55;;;;;;;0.73;100.00;100759.34;10703183;81;21449;-87
2020/12/15 09:22:18;;;;;;;216.80;60.40;;;;;;;0.64;100.00;100769.11;10752872;81;21084;-88
2020/12/15 09:37:25;;;;;;;269.07;107.72;;;;;;;0.47;100.00;100758.59;10745514;81;21076;-83
2020/12/15 09:52:29;;;;;;;171.47;62.85;;;;;;;0.47;100.00;100758.59;10758081;81;21017;-85
2020/12/15 10:07:35;;;;;;;139.62;67.32;;;;;;;0.68;100.00;100747.05;10750911;82;21076;-82
2020/12/15 10:22:40;;;;;;;96.85;42.58;;;;;;;0.71;100.00;100758.55;10741206;81;21115;-83
2020/12/15 10:37:45;;;;;;;82.82;35.05;;;;;;;0.69;100.00;100725.47;10752716;81;21541;-82
2020/12/15 10:52:51;;;;;;;104.43;40.80;;;;;;;0.66;100.00;100697.59;10739063;82;21164;-83
2020/12/15 11:07:56;;;;;;;106.03;45.15;;;;;;;0.71;100.00;100699.97;10736356;82;21076;-85
2020/12/15 11:23:01;;;;;;;86.75;35.88;;;;;;;0.75;100.00;100688.64;10743063;81;21103;-85
2020/12/15 11:38:06;;;;;;;116.45;41.98;;;;;;;0.67;100.00;100680.34;10719172;81;21111;-85
2020/12/15 11:53:11;;;;;;;64.55;27.87;;;;;;;0.77;100.00;100691.98;10734664;81;21052;-84
2020/12/15 12:08:16;;;;;;;114.08;38.28;;;;;;;0.56;100.00;100691.11;10747733;81;21001;-85
2020/12/15 12:23:21;;;;;;;129.35;45.78;;;;;;;0.67;100.00;100686.80;10747565;82;21139;-85
2020/12/15 12:38:25;;;;;;;102.42;40.10;;;;;;;0.73;100.00;100676.69;10747191;82;21041;-84
2020/12/15 12:53:29;;;;;;;132.52;43.05;;;;;;;0.79;100.00;100695.79;10751685;82;21034;-85
2020/12/15 13:08:34;;;;;;;221.37;59.33;;;;;;;0.89;100.00;100671.73;10748229;81;20984;-85
2020/12/15 13:23:39;;;;;;;165.47;48.48;;;;;;;0.95;100.00;100642.59;10736444;82;21098;-85
2020/12/15 13:38:43;;;;;;;212.05;58.17;;;;;;;0.90;100.00;100622.58;10737664;81;21027;-87
2020/12/15 13:53:49;;;;;;;146.45;50.05;;;;;;;1.12;100.00;100659.12;10759952;81;21119;-88
2020/12/15 14:08:57;;;;;;;192.60;60.90;;;;;;;1.21;100.00;100663.06;10774473;82;21001;-86
2020/12/15 14:24:05;;;;;;;154.03;57.40;;;;;;;1.17;100.00;100653.30;10775815;81;21144;-85
2020/12/15 14:39:09;;;;;;;231.70;78.10;;;;;;;1.20;100.00;100663.96;10215151;86;21170;-84
2020/12/15 14:54:17;;;;;;;201.30;83.15;;;;;;;1.18;100.00;100656.75;10603576;81;21465;-87
2020/12/15 15:09:22;;;;;;;187.00;62.25;;;;;;;1.08;100.00;100641.64;10724589;81;21075;-86
2020/12/15 15:24:27;;;;;;;205.27;66.67;;;;;;;0.99;100.00;100605.86;10732668;82;21056;-86
2020/12/15 15:39:33;;;;;;;139.65;54.70;;;;;;;1.15;100.00;100571.96;10740675;82;21221;-87
2020/12/15 15:54:38;;;;;;;156.55;53.33;;;;;;;1.15;100.00;100571.96;10717953;81;22097;-86
2020/12/15 16:09:42;;;;;;;150.30;53.20;;;;;;;1.12;100.00;100550.58;10731306;82;21091;-86
2020/12/15 16:24:47;;;;;;;174.47;64.40;;;;;;;1.08;100.00;100506.41;10756471;81;21134;-84
2020/12/15 16:39:52;;;;;;;167.20;60.23;;;;;;;1.33;100.00;100541.02;10700889;81;21096;-87
2020/12/15 16:54:57;;;;;;;122.50;51.20;;;;;;;1.41;100.00;100538.95;10735543;81;21047;-84
2020/12/15 17:10:02;;;;;;;95.60;36.85;;;;;;;1.41;100.00;100538.95;10770983;81;21000;-85
2020/12/15 17:25:08;;;;;;;113.25;55.83;;;;;;;1.47;100.00;100586.48;10798941;81;21061;-86
2020/12/15 17:40:12;;;;;;;127.95;48.63;;;;;;;1.60;100.00;100571.25;10761268;81;21092;-85
2020/12/15 17:55:19;;;;;;;198.40;67.93;;;;;;;1.68;100.00;100546.33;10731353;81;21072;-86
2020/12/15 18:10:24;;;;;;;130.45;55.23;;;;;;;1.60;100.00;100551.03;10322432;84;21042;-81
2020/12/15 18:25:32;;;;;;;147.00;54.67;;;;;;;1.45;100.00;100531.86;10659830;81;21070;-84
2020/12/15 18:40:36;;;;;;;180.37;60.15;;;;;;;1.65;100.00;100569.30;10659150;82;21465;-81
2020/12/15 18:55:41;;;;;;;134.05;52.95;;;;;;;1.75;100.00;100566.28;10669013;82;21016;-82
2020/12/15 19:10:45;;;;;;;141.92;63.87;;;;;;;1.72;100.00;100586.66;10684366;83;21454;-83
2020/12/15 19:25:50;;;;;;;100.33;45.98;;;;;;;1.86;100.00;100574.83;10767872;81;21052;-85
2020/12/15 19:40:55;;;;;;;115.77;46.73;;;;;;;1.96;100.00;100563.96;10762723;81;21012;-81
2020/12/15 19:55:59;;;;;;;98.55;40.58;;;;;;;1.96;100.00;100563.96;10231403;85;21528;-81
2020/12/15 20:11:04;;;;;;;89.20;39.35;;;;;;;2.03;100.00;100580.03;10214921;85;21254;-80
2020/12/15 20:26:16;;;;;;;90.70;38.88;;;;;;;2.13;100.00;100567.03;10667805;81;21043;-87
2020/12/15 20:41:21;;;;;;;86.28;38.55;;;;;;;2.34;100.00;100552.67;10736285;82;21378;-87
2020/12/15 20:56:25;;;;;;;80.42;34.23;;;;;;;2.34;100.00;100552.67;10733088;82;21025;-86
2020/12/15 21:11:30;;;;;;;75.40;35.25;;;;;;;2.33;100.00;100567.82;10752001;81;21536;-84
2020/12/15 21:26:35;;;;;;;75.35;34.67;;;;;;;2.37;100.00;100569.34;10743824;80;21084;-85
2020/12/15 21:41:41;;;;;;;78.17;36.30;;;;;;;2.43;100.00;100547.03;10755705;81;21160;-82
2020/12/15 21:56:48;;;;;;;66.65;32.38;;;;;;;2.29;100.00;100553.35;10744636;81;21088;-81
2020/12/15 22:11:52;;;;;;;79.97;36.73;;;;;;;2.49;100.00;100560.98;10699639;80;21068;-81
2020/12/15 22:26:58;;;;;;;75.83;32.05;;;;;;;2.36;100.00;100552.59;10675028;81;21603;-82
2020/12/15 22:42:02;;;;;;;71.00;33.67;;;;;;;2.51;100.00;100551.84;10728042;82;21076;-81
2020/12/15 22:57:10;;;;;;;72.80;33.57;;;;;;;2.40;100.00;100545.91;10694512;81;20988;-80
2020/12/15 23:12:14;;;;;;;61.60;30.37;;;;;;;2.47;100.00;100555.03;10685730;82;21041;-81
2020/12/15 23:27:19;;;;;;;71.53;31.62;;;;;;;2.53;100.00;100554.34;10730098;80;21008;-81
2020/12/15 23:42:23;;;;;;;64.47;30.08;;;;;;;2.53;100.00;100546.11;10776414;81;21198;-79
2020/12/15 23:57:27;;;;;;;68.72;33.20;;;;;;;2.58;100.00;100548.48;10790899;82;21551;-80
